SDM3617 ULLI-UWKD
Flight info
| Callsign | SDM3617 |
|---|---|
| Flight time | 1h 40m |
| Altitude | 37000 |
| Route | SUGIN T873 NIRGI T73 DESUD P164 ROKUR T784 ADMUL L94 UNORO T788 KOROM |
| Aircraft | A320/M-SDE3FGHIRWY/LB1 |
Departure
| Time | 2026-05-07 14:30 |
|---|---|
| Airport | Pulkovo Airport (ULLI) |
Arrival
| Time | 2026-05-07 16:10 |
|---|---|
| Airport | Kazan International Airport (UWKD) |
| Time | Latitude | Longitude | Altitude | Speed | Heading |
|---|---|---|---|---|---|
| 2026-05-07 13:59 | 59.79814 | 30.26655 | 83 ft | 0 kts | 107° |
| 2026-05-07 14:22 | 59.79818 | 30.26632 | 88 ft | 4 kts | 103° |
| 2026-05-07 14:22 | 59.79821 | 30.26579 | 83 ft | 4 kts | 82° |
| 2026-05-07 14:22 | 59.79812 | 30.26536 | 88 ft | 3 kts | 22° |
| 2026-05-07 14:22 | 59.79808 | 30.26533 | 88 ft | 0 kts | 17° |
| 2026-05-07 14:24 | 59.79831 | 30.26547 | 85 ft | 12 kts | 17° |
| 2026-05-07 14:25 | 59.79926 | 30.26603 | 82 ft | 15 kts | 17° |
| 2026-05-07 14:25 | 59.80031 | 30.26665 | 82 ft | 16 kts | 16° |
| 2026-05-07 14:25 | 59.80145 | 30.26733 | 85 ft | 18 kts | 17° |
| 2026-05-07 14:25 | 59.80267 | 30.26805 | 83 ft | 19 kts | 15° |
| 2026-05-07 14:26 | 59.80369 | 30.26865 | 83 ft | 12 kts | 17° |
| 2026-05-07 14:26 | 59.80407 | 30.26789 | 86 ft | 10 kts | 286° |
| 2026-05-07 14:26 | 59.80435 | 30.26597 | 86 ft | 20 kts | 286° |
| 2026-05-07 14:26 | 59.80475 | 30.26329 | 85 ft | 20 kts | 286° |
| 2026-05-07 14:27 | 59.80516 | 30.26053 | 83 ft | 25 kts | 286° |
| 2026-05-07 14:27 | 59.80570 | 30.25700 | 77 ft | 28 kts | 287° |
| 2026-05-07 14:27 | 59.80624 | 30.25343 | 69 ft | 26 kts | 287° |
| 2026-05-07 14:27 | 59.80669 | 30.25034 | 69 ft | 24 kts | 286° |
| 2026-05-07 14:28 | 59.80716 | 30.24723 | 73 ft | 23 kts | 287° |
| 2026-05-07 14:28 | 59.80801 | 30.24601 | 67 ft | 16 kts | 348° |
| 2026-05-07 14:28 | 59.80916 | 30.24557 | 64 ft | 18 kts | 349° |
| 2026-05-07 14:28 | 59.80957 | 30.24667 | 67 ft | 13 kts | 104° |
| 2026-05-07 14:29 | 59.80917 | 30.24934 | 66 ft | 43 kts | 107° |
| 2026-05-07 14:29 | 59.80765 | 30.25952 | 74 ft | 107 kts | 107° |
| 2026-05-07 14:29 | 59.80558 | 30.27330 | 83 ft | 105 kts | 106° |
| 2026-05-07 14:29 | 59.80289 | 30.29160 | 122 ft | 165 kts | 105° |
| 2026-05-07 14:30 | 59.79974 | 30.31334 | 929 ft | 167 kts | 105° |
| 2026-05-07 14:30 | 59.79640 | 30.33565 | 1930 ft | 170 kts | 104° |
| 2026-05-07 14:30 | 59.79293 | 30.35872 | 2497 ft | 180 kts | 104° |
| 2026-05-07 14:30 | 59.78915 | 30.38394 | 2776 ft | 202 kts | 104° |
| 2026-05-07 14:31 | 59.78496 | 30.41194 | 3084 ft | 227 kts | 105° |
| 2026-05-07 14:31 | 59.78024 | 30.44350 | 3579 ft | 247 kts | 105° |
| 2026-05-07 14:31 | 59.77521 | 30.47715 | 4395 ft | 253 kts | 105° |
| 2026-05-07 14:31 | 59.77022 | 30.51044 | 5284 ft | 256 kts | 105° |
| 2026-05-07 14:32 | 59.76510 | 30.54448 | 6192 ft | 259 kts | 105° |
| 2026-05-07 14:32 | 59.75992 | 30.57884 | 7043 ft | 262 kts | 105° |
| 2026-05-07 14:32 | 59.75470 | 30.61425 | 7833 ft | 267 kts | 105° |
| 2026-05-07 14:32 | 59.74959 | 30.65008 | 8604 ft | 273 kts | 105° |
| 2026-05-07 14:33 | 59.74441 | 30.68679 | 9335 ft | 280 kts | 105° |
| 2026-05-07 14:33 | 59.73907 | 30.72440 | 10035 ft | 287 kts | 105° |
| 2026-05-07 14:33 | 59.73353 | 30.76338 | 10445 ft | 305 kts | 105° |
| 2026-05-07 14:33 | 59.72754 | 30.80540 | 10646 ft | 328 kts | 106° |
| 2026-05-07 14:34 | 59.72106 | 30.85039 | 10900 ft | 349 kts | 106° |
| 2026-05-07 14:34 | 59.71425 | 30.89719 | 11476 ft | 357 kts | 107° |
| 2026-05-07 14:34 | 59.70734 | 30.94479 | 12138 ft | 362 kts | 107° |
| 2026-05-07 14:34 | 59.70034 | 30.99316 | 12747 ft | 368 kts | 107° |
| 2026-05-07 14:35 | 59.69318 | 31.04228 | 13356 ft | 374 kts | 108° |
| 2026-05-07 14:35 | 59.68584 | 31.09211 | 13954 ft | 380 kts | 108° |
| 2026-05-07 14:35 | 59.67838 | 31.14274 | 14494 ft | 386 kts | 108° |
| 2026-05-07 14:35 | 59.67079 | 31.19419 | 15035 ft | 392 kts | 109° |
| 2026-05-07 14:36 | 59.66309 | 31.24619 | 15586 ft | 397 kts | 109° |
| 2026-05-07 14:36 | 59.65526 | 31.29903 | 16119 ft | 403 kts | 109° |
| 2026-05-07 14:36 | 59.64733 | 31.35246 | 16641 ft | 408 kts | 109° |
| 2026-05-07 14:36 | 59.63928 | 31.40654 | 17160 ft | 413 kts | 109° |
| 2026-05-07 14:37 | 59.63107 | 31.46134 | 17677 ft | 418 kts | 110° |
| 2026-05-07 14:37 | 59.61426 | 31.57273 | 18674 ft | 428 kts | 110° |
| 2026-05-07 14:37 | 59.60572 | 31.62923 | 19138 ft | 432 kts | 110° |
| 2026-05-07 14:38 | 59.59709 | 31.68640 | 19596 ft | 436 kts | 111° |
| 2026-05-07 14:38 | 59.58833 | 31.74395 | 20067 ft | 440 kts | 111° |
| 2026-05-07 14:38 | 59.57942 | 31.80197 | 20520 ft | 444 kts | 111° |
| 2026-05-07 14:38 | 59.57045 | 31.86055 | 20949 ft | 448 kts | 111° |
| 2026-05-07 14:39 | 59.56142 | 31.91956 | 21362 ft | 452 kts | 111° |
| 2026-05-07 14:39 | 59.55223 | 31.97917 | 21777 ft | 455 kts | 112° |
| 2026-05-07 14:39 | 59.54262 | 32.03876 | 22195 ft | 456 kts | 116° |
| 2026-05-07 14:39 | 59.52926 | 32.09508 | 22604 ft | 452 kts | 127° |
| 2026-05-07 14:40 | 59.51179 | 32.14599 | 23009 ft | 446 kts | 136° |
| 2026-05-07 14:40 | 59.49069 | 32.19125 | 23418 ft | 442 kts | 143° |
| 2026-05-07 14:40 | 59.47617 | 32.21961 | 23687 ft | 444 kts | 144° |
| 2026-05-07 14:40 | 59.44675 | 32.27687 | 24186 ft | 446 kts | 144° |
| 2026-05-07 14:41 | 59.43215 | 32.30530 | 24446 ft | 447 kts | 144° |
| 2026-05-07 14:41 | 59.41001 | 32.34832 | 24834 ft | 448 kts | 144° |
| 2026-05-07 14:41 | 59.38783 | 32.39135 | 25198 ft | 449 kts | 144° |
| 2026-05-07 14:41 | 59.36557 | 32.43450 | 25559 ft | 450 kts | 144° |
| 2026-05-07 14:42 | 59.34331 | 32.47770 | 25934 ft | 452 kts | 144° |
| 2026-05-07 14:42 | 59.32096 | 32.52098 | 26300 ft | 453 kts | 144° |
| 2026-05-07 14:42 | 59.29846 | 32.56437 | 26663 ft | 454 kts | 144° |
| 2026-05-07 14:42 | 59.27590 | 32.60770 | 27015 ft | 455 kts | 144° |
| 2026-05-07 14:43 | 59.25326 | 32.65117 | 27351 ft | 457 kts | 144° |
| 2026-05-07 14:43 | 59.23060 | 32.69469 | 27671 ft | 458 kts | 144° |
| 2026-05-07 14:43 | 59.20780 | 32.73853 | 27992 ft | 460 kts | 144° |
| 2026-05-07 14:43 | 59.18494 | 32.78229 | 28300 ft | 462 kts | 144° |
| 2026-05-07 14:44 | 59.16191 | 32.82613 | 28597 ft | 463 kts | 144° |
| 2026-05-07 14:44 | 59.13877 | 32.86994 | 28886 ft | 465 kts | 144° |
| 2026-05-07 14:44 | 59.11551 | 32.91410 | 29178 ft | 467 kts | 144° |
| 2026-05-07 14:44 | 59.09224 | 32.95840 | 29446 ft | 469 kts | 144° |
| 2026-05-07 14:45 | 59.06845 | 33.00341 | 29720 ft | 471 kts | 144° |
| 2026-05-07 14:45 | 59.04520 | 33.04716 | 29991 ft | 472 kts | 144° |
| 2026-05-07 14:45 | 59.02127 | 33.09220 | 30317 ft | 472 kts | 144° |
| 2026-05-07 14:45 | 58.99776 | 33.13646 | 30632 ft | 472 kts | 144° |
| 2026-05-07 14:46 | 58.97419 | 33.18083 | 30931 ft | 472 kts | 144° |
| 2026-05-07 14:46 | 58.95063 | 33.22489 | 31219 ft | 471 kts | 144° |
| 2026-05-07 14:46 | 58.92696 | 33.26892 | 31516 ft | 471 kts | 145° |
| 2026-05-07 14:46 | 58.90332 | 33.31288 | 31809 ft | 472 kts | 144° |
| 2026-05-07 14:47 | 58.87966 | 33.35695 | 32095 ft | 472 kts | 144° |
| 2026-05-07 14:47 | 58.85599 | 33.40088 | 32390 ft | 471 kts | 144° |
| 2026-05-07 14:47 | 58.83234 | 33.44466 | 32680 ft | 471 kts | 145° |
| 2026-05-07 14:47 | 58.80866 | 33.48844 | 32975 ft | 471 kts | 144° |
| 2026-05-07 14:48 | 58.78494 | 33.53222 | 33260 ft | 471 kts | 144° |
| 2026-05-07 14:48 | 58.76129 | 33.57579 | 33531 ft | 471 kts | 145° |
| 2026-05-07 14:48 | 58.73757 | 33.61943 | 33817 ft | 471 kts | 145° |
| 2026-05-07 14:48 | 58.71384 | 33.66299 | 34087 ft | 471 kts | 145° |
| 2026-05-07 14:49 | 58.69009 | 33.70642 | 34322 ft | 471 kts | 144° |
| 2026-05-07 14:49 | 58.66628 | 33.74983 | 34549 ft | 472 kts | 144° |
| 2026-05-07 14:49 | 58.64247 | 33.79329 | 34783 ft | 472 kts | 144° |
| 2026-05-07 14:49 | 58.61865 | 33.83672 | 34989 ft | 472 kts | 144° |
| 2026-05-07 14:50 | 58.59482 | 33.88009 | 35199 ft | 473 kts | 144° |
| 2026-05-07 14:50 | 58.57093 | 33.92345 | 35407 ft | 473 kts | 144° |
| 2026-05-07 14:50 | 58.54683 | 33.96710 | 35607 ft | 473 kts | 144° |
| 2026-05-07 14:50 | 58.52314 | 34.00990 | 35816 ft | 473 kts | 143° |
| 2026-05-07 14:51 | 58.49918 | 34.05305 | 36014 ft | 473 kts | 143° |
| 2026-05-07 14:51 | 58.47519 | 34.09612 | 36217 ft | 473 kts | 143° |
| 2026-05-07 14:51 | 58.45121 | 34.13908 | 36419 ft | 473 kts | 143° |
| 2026-05-07 14:51 | 58.42725 | 34.18195 | 36603 ft | 473 kts | 143° |
| 2026-05-07 14:52 | 58.40324 | 34.22485 | 36795 ft | 472 kts | 143° |
| 2026-05-07 14:52 | 58.37925 | 34.26761 | 36954 ft | 472 kts | 143° |
| 2026-05-07 14:52 | 58.33115 | 34.35316 | 36981 ft | 473 kts | 143° |
| 2026-05-07 14:53 | 58.28305 | 34.43866 | 36972 ft | 473 kts | 143° |
| 2026-05-07 14:53 | 58.23457 | 34.52429 | 36969 ft | 473 kts | 143° |
| 2026-05-07 14:54 | 58.18612 | 34.60862 | 36973 ft | 472 kts | 145° |
| 2026-05-07 14:54 | 58.13605 | 34.68866 | 36960 ft | 470 kts | 147° |
| 2026-05-07 14:55 | 58.08532 | 34.76669 | 36958 ft | 470 kts | 147° |
| 2026-05-07 14:55 | 58.03470 | 34.84522 | 36957 ft | 471 kts | 146° |
| 2026-05-07 14:56 | 57.98433 | 34.92433 | 36954 ft | 471 kts | 146° |
| 2026-05-07 14:56 | 57.93404 | 35.00347 | 36945 ft | 471 kts | 146° |
| 2026-05-07 14:57 | 57.88358 | 35.08220 | 36944 ft | 471 kts | 146° |
| 2026-05-07 14:57 | 57.83299 | 35.16063 | 36943 ft | 471 kts | 146° |
| 2026-05-07 14:58 | 57.78235 | 35.23883 | 36934 ft | 471 kts | 146° |
| 2026-05-07 14:58 | 57.73171 | 35.31671 | 36937 ft | 471 kts | 146° |
| 2026-05-07 14:59 | 57.68097 | 35.39449 | 36937 ft | 471 kts | 146° |
| 2026-05-07 14:59 | 57.63084 | 35.47342 | 36934 ft | 474 kts | 139° |
| 2026-05-07 15:00 | 57.59178 | 35.57477 | 36930 ft | 485 kts | 118° |
| 2026-05-07 15:00 | 57.56782 | 35.69279 | 36928 ft | 488 kts | 112° |
| 2026-05-07 15:01 | 57.54435 | 35.81138 | 36936 ft | 488 kts | 113° |
| 2026-05-07 15:01 | 57.52050 | 35.92966 | 36939 ft | 488 kts | 113° |
| 2026-05-07 15:02 | 57.49661 | 36.04774 | 36944 ft | 488 kts | 113° |
| 2026-05-07 15:02 | 57.47294 | 36.16585 | 36956 ft | 488 kts | 113° |
| 2026-05-07 15:03 | 57.44940 | 36.28399 | 36950 ft | 487 kts | 113° |
| 2026-05-07 15:03 | 57.42566 | 36.40177 | 36947 ft | 487 kts | 113° |
| 2026-05-07 15:04 | 57.40168 | 36.51918 | 36941 ft | 486 kts | 113° |
| 2026-05-07 15:04 | 57.37765 | 36.63635 | 36939 ft | 486 kts | 113° |
| 2026-05-07 15:05 | 57.35363 | 36.75321 | 36933 ft | 485 kts | 114° |
| 2026-05-07 15:05 | 57.32938 | 36.86980 | 36939 ft | 485 kts | 114° |
| 2026-05-07 15:06 | 57.30494 | 36.98710 | 36936 ft | 485 kts | 114° |
| 2026-05-07 15:06 | 57.28063 | 37.10336 | 36929 ft | 484 kts | 114° |
| 2026-05-07 15:07 | 57.25619 | 37.21937 | 36932 ft | 484 kts | 114° |
| 2026-05-07 15:07 | 57.23167 | 37.33512 | 36932 ft | 484 kts | 114° |
| 2026-05-07 15:08 | 57.20702 | 37.45054 | 36931 ft | 483 kts | 114° |
| 2026-05-07 15:08 | 57.18221 | 37.56587 | 36929 ft | 483 kts | 114° |
| 2026-05-07 15:09 | 57.15997 | 37.68265 | 36927 ft | 485 kts | 106° |
| 2026-05-07 15:09 | 57.14297 | 37.80285 | 36926 ft | 485 kts | 107° |
| 2026-05-07 15:10 | 57.12560 | 37.92273 | 36925 ft | 485 kts | 107° |
| 2026-05-07 15:10 | 57.10808 | 38.04244 | 36919 ft | 484 kts | 107° |
| 2026-05-07 15:11 | 57.09048 | 38.16209 | 36921 ft | 484 kts | 107° |
| 2026-05-07 15:11 | 57.07285 | 38.28149 | 36916 ft | 484 kts | 107° |
| 2026-05-07 15:12 | 57.05500 | 38.40146 | 36920 ft | 484 kts | 107° |
| 2026-05-07 15:12 | 57.03713 | 38.52046 | 36916 ft | 483 kts | 107° |
| 2026-05-07 15:13 | 57.01917 | 38.63940 | 36928 ft | 483 kts | 107° |
| 2026-05-07 15:13 | 57.00117 | 38.75795 | 36920 ft | 482 kts | 107° |
| 2026-05-07 15:14 | 56.98613 | 38.85637 | 36925 ft | 482 kts | 107° |
| 2026-05-07 15:14 | 56.96792 | 38.97444 | 36917 ft | 481 kts | 107° |
| 2026-05-07 15:15 | 56.94956 | 39.09236 | 36917 ft | 481 kts | 108° |
| 2026-05-07 15:15 | 56.93096 | 39.21093 | 36912 ft | 481 kts | 108° |
| 2026-05-07 15:16 | 56.91245 | 39.32844 | 36909 ft | 480 kts | 108° |
| 2026-05-07 15:16 | 56.89382 | 39.44579 | 36902 ft | 480 kts | 108° |
| 2026-05-07 15:17 | 56.87514 | 39.56291 | 36905 ft | 480 kts | 108° |
| 2026-05-07 15:17 | 56.85639 | 39.67992 | 36901 ft | 479 kts | 108° |
| 2026-05-07 15:18 | 56.83745 | 39.79662 | 36902 ft | 479 kts | 108° |
| 2026-05-07 15:18 | 56.81835 | 39.91332 | 36903 ft | 479 kts | 108° |
| 2026-05-07 15:19 | 56.79936 | 40.02985 | 36898 ft | 479 kts | 108° |
| 2026-05-07 15:19 | 56.78025 | 40.14633 | 36895 ft | 479 kts | 108° |
| 2026-05-07 15:20 | 56.76109 | 40.26265 | 36894 ft | 479 kts | 108° |
| 2026-05-07 15:20 | 56.74179 | 40.37879 | 36894 ft | 479 kts | 108° |
| 2026-05-07 15:21 | 56.72236 | 40.49467 | 36894 ft | 478 kts | 108° |
| 2026-05-07 15:21 | 56.70285 | 40.61037 | 36892 ft | 478 kts | 108° |
| 2026-05-07 15:22 | 56.68323 | 40.72577 | 36891 ft | 477 kts | 108° |
| 2026-05-07 15:22 | 56.66343 | 40.84162 | 36889 ft | 477 kts | 109° |
| 2026-05-07 15:23 | 56.64368 | 40.95661 | 36885 ft | 476 kts | 109° |
| 2026-05-07 15:23 | 56.62304 | 41.07089 | 36884 ft | 475 kts | 115° |
| 2026-05-07 15:24 | 56.58967 | 41.17299 | 36877 ft | 469 kts | 129° |
| 2026-05-07 15:24 | 56.55037 | 41.26746 | 36873 ft | 470 kts | 129° |
| 2026-05-07 15:25 | 56.51110 | 41.36199 | 36868 ft | 470 kts | 129° |
| 2026-05-07 15:25 | 56.47173 | 41.45639 | 36864 ft | 470 kts | 129° |
| 2026-05-07 15:26 | 56.43232 | 41.55057 | 36870 ft | 470 kts | 129° |
| 2026-05-07 15:26 | 56.39257 | 41.64518 | 36871 ft | 470 kts | 129° |
| 2026-05-07 15:27 | 56.35299 | 41.73892 | 36868 ft | 469 kts | 129° |
| 2026-05-07 15:27 | 56.31338 | 41.83235 | 36869 ft | 469 kts | 129° |
| 2026-05-07 15:28 | 56.27369 | 41.92565 | 36871 ft | 469 kts | 129° |
| 2026-05-07 15:28 | 56.23392 | 42.01872 | 36872 ft | 469 kts | 129° |
| 2026-05-07 15:29 | 56.20171 | 42.12048 | 36877 ft | 472 kts | 111° |
| 2026-05-07 15:29 | 56.18856 | 42.23559 | 36871 ft | 473 kts | 95° |
| 2026-05-07 15:30 | 56.18235 | 42.35306 | 36866 ft | 473 kts | 96° |
| 2026-05-07 15:30 | 56.17575 | 42.47064 | 36869 ft | 473 kts | 96° |
| 2026-05-07 15:31 | 56.16904 | 42.58799 | 36873 ft | 473 kts | 96° |
| 2026-05-07 15:31 | 56.16237 | 42.70544 | 36871 ft | 473 kts | 96° |
| 2026-05-07 15:32 | 56.15560 | 42.82280 | 36874 ft | 473 kts | 96° |
| 2026-05-07 15:32 | 56.14866 | 42.94010 | 36876 ft | 473 kts | 96° |
| 2026-05-07 15:33 | 56.14155 | 43.05818 | 36877 ft | 473 kts | 96° |
| 2026-05-07 15:33 | 56.13432 | 43.17536 | 36882 ft | 473 kts | 97° |
| 2026-05-07 15:34 | 56.13110 | 43.29298 | 36888 ft | 473 kts | 90° |
| 2026-05-07 15:34 | 56.13024 | 43.41075 | 36891 ft | 472 kts | 91° |
| 2026-05-07 15:35 | 56.12915 | 43.52841 | 36876 ft | 472 kts | 91° |
| 2026-05-07 15:35 | 56.12794 | 43.64606 | 36874 ft | 472 kts | 91° |
| 2026-05-07 15:36 | 56.12658 | 43.76369 | 36871 ft | 472 kts | 91° |
| 2026-05-07 15:36 | 56.12509 | 43.88124 | 36869 ft | 472 kts | 91° |
| 2026-05-07 15:37 | 56.12351 | 43.99871 | 36869 ft | 471 kts | 91° |
| 2026-05-07 15:37 | 56.12189 | 44.11616 | 36873 ft | 471 kts | 91° |
| 2026-05-07 15:38 | 56.12015 | 44.23356 | 36879 ft | 471 kts | 91° |
| 2026-05-07 15:38 | 56.11830 | 44.35094 | 36881 ft | 471 kts | 92° |
| 2026-05-07 15:39 | 56.11627 | 44.46841 | 36886 ft | 471 kts | 92° |
| 2026-05-07 15:39 | 56.11412 | 44.58575 | 36889 ft | 471 kts | 92° |
| 2026-05-07 15:40 | 56.11192 | 44.70318 | 36893 ft | 471 kts | 92° |
| 2026-05-07 15:40 | 56.10961 | 44.82137 | 36893 ft | 471 kts | 92° |
| 2026-05-07 15:41 | 56.10719 | 44.93873 | 36896 ft | 472 kts | 92° |
| 2026-05-07 15:41 | 56.10463 | 45.05627 | 36902 ft | 472 kts | 92° |
| 2026-05-07 15:42 | 56.10180 | 45.17377 | 36909 ft | 472 kts | 92° |
| 2026-05-07 15:42 | 56.09212 | 45.28946 | 36907 ft | 471 kts | 104° |
| 2026-05-07 15:43 | 56.07712 | 45.40354 | 36913 ft | 471 kts | 104° |
| 2026-05-07 15:43 | 56.06187 | 45.51757 | 36918 ft | 471 kts | 104° |
| 2026-05-07 15:44 | 56.04651 | 45.63147 | 36926 ft | 471 kts | 104° |
| 2026-05-07 15:44 | 56.03114 | 45.74520 | 36924 ft | 471 kts | 104° |
| 2026-05-07 15:45 | 56.01573 | 45.85892 | 36931 ft | 470 kts | 104° |
| 2026-05-07 15:45 | 56.00020 | 45.97243 | 36934 ft | 470 kts | 104° |
| 2026-05-07 15:46 | 55.97926 | 46.12409 | 36775 ft | 470 kts | 104° |
| 2026-05-07 15:46 | 55.97142 | 46.18066 | 36509 ft | 469 kts | 104° |
| 2026-05-07 15:47 | 55.96354 | 46.23718 | 36249 ft | 469 kts | 104° |
| 2026-05-07 15:47 | 55.95564 | 46.29363 | 35990 ft | 469 kts | 104° |
| 2026-05-07 15:47 | 55.94770 | 46.35014 | 35739 ft | 469 kts | 104° |
| 2026-05-07 15:47 | 55.93972 | 46.40660 | 35489 ft | 469 kts | 104° |
| 2026-05-07 15:48 | 55.93171 | 46.46298 | 35237 ft | 469 kts | 104° |
| 2026-05-07 15:48 | 55.92367 | 46.51941 | 34996 ft | 469 kts | 104° |
| 2026-05-07 15:48 | 55.91564 | 46.57572 | 34749 ft | 469 kts | 104° |
| 2026-05-07 15:48 | 55.90755 | 46.63217 | 34510 ft | 470 kts | 105° |
| 2026-05-07 15:49 | 55.89944 | 46.68854 | 34270 ft | 470 kts | 104° |
| 2026-05-07 15:49 | 55.89131 | 46.74488 | 34034 ft | 470 kts | 104° |
| 2026-05-07 15:49 | 55.88317 | 46.80117 | 33773 ft | 470 kts | 105° |
| 2026-05-07 15:49 | 55.87500 | 46.85749 | 33492 ft | 470 kts | 105° |
| 2026-05-07 15:50 | 55.86680 | 46.91390 | 33217 ft | 471 kts | 105° |
| 2026-05-07 15:50 | 55.85856 | 46.97022 | 32947 ft | 471 kts | 105° |
| 2026-05-07 15:50 | 55.85025 | 47.02674 | 32358 ft | 473 kts | 105° |
| 2026-05-07 15:50 | 55.84181 | 47.08397 | 31144 ft | 482 kts | 105° |
| 2026-05-07 15:51 | 55.83325 | 47.14182 | 30257 ft | 485 kts | 105° |
| 2026-05-07 15:51 | 55.82467 | 47.19946 | 29594 ft | 479 kts | 105° |
| 2026-05-07 15:51 | 55.81619 | 47.25639 | 28904 ft | 474 kts | 105° |
| 2026-05-07 15:51 | 55.80774 | 47.31277 | 28234 ft | 469 kts | 105° |
| 2026-05-07 15:52 | 55.79938 | 47.36840 | 27582 ft | 464 kts | 105° |
| 2026-05-07 15:52 | 55.79109 | 47.42355 | 26938 ft | 460 kts | 105° |
| 2026-05-07 15:52 | 55.78285 | 47.47827 | 26294 ft | 456 kts | 105° |
| 2026-05-07 15:52 | 55.77465 | 47.53244 | 25657 ft | 453 kts | 106° |
| 2026-05-07 15:53 | 55.76646 | 47.58624 | 25028 ft | 450 kts | 106° |
| 2026-05-07 15:53 | 55.75826 | 47.63969 | 24403 ft | 447 kts | 106° |
| 2026-05-07 15:53 | 55.75001 | 47.69329 | 23796 ft | 443 kts | 106° |
| 2026-05-07 15:53 | 55.74190 | 47.74595 | 23161 ft | 440 kts | 106° |
| 2026-05-07 15:54 | 55.73388 | 47.79806 | 22600 ft | 435 kts | 106° |
| 2026-05-07 15:54 | 55.72596 | 47.84942 | 22081 ft | 429 kts | 106° |
| 2026-05-07 15:54 | 55.71811 | 47.90008 | 21568 ft | 423 kts | 106° |
| 2026-05-07 15:54 | 55.71033 | 47.95004 | 21078 ft | 418 kts | 106° |
| 2026-05-07 15:55 | 55.70265 | 47.99950 | 20592 ft | 414 kts | 106° |
| 2026-05-07 15:55 | 55.69502 | 48.04839 | 20094 ft | 410 kts | 106° |
| 2026-05-07 15:55 | 55.68743 | 48.09682 | 19605 ft | 406 kts | 106° |
| 2026-05-07 15:55 | 55.67985 | 48.14488 | 19106 ft | 404 kts | 106° |
| 2026-05-07 15:56 | 55.67229 | 48.19264 | 18602 ft | 402 kts | 106° |
| 2026-05-07 15:56 | 55.66475 | 48.24022 | 18057 ft | 400 kts | 106° |
| 2026-05-07 15:56 | 55.65724 | 48.28756 | 17521 ft | 398 kts | 106° |
| 2026-05-07 15:56 | 55.64969 | 48.33463 | 16896 ft | 397 kts | 107° |
| 2026-05-07 15:57 | 55.64130 | 48.38165 | 15802 ft | 401 kts | 109° |
| 2026-05-07 15:57 | 55.63213 | 48.42803 | 14762 ft | 398 kts | 110° |
| 2026-05-07 15:57 | 55.62265 | 48.47354 | 13903 ft | 391 kts | 110° |
| 2026-05-07 15:57 | 55.61327 | 48.51776 | 13305 ft | 376 kts | 110° |
| 2026-05-07 15:58 | 55.60436 | 48.56011 | 12801 ft | 359 kts | 110° |
| 2026-05-07 15:58 | 55.59593 | 48.60074 | 12303 ft | 345 kts | 109° |
| 2026-05-07 15:58 | 55.58785 | 48.64016 | 11820 ft | 340 kts | 109° |
| 2026-05-07 15:58 | 55.57987 | 48.67954 | 11328 ft | 341 kts | 109° |
| 2026-05-07 15:59 | 55.57192 | 48.71899 | 10826 ft | 341 kts | 108° |
| 2026-05-07 15:59 | 55.56394 | 48.75838 | 10482 ft | 337 kts | 109° |
| 2026-05-07 15:59 | 55.55615 | 48.79665 | 10359 ft | 325 kts | 109° |
| 2026-05-07 15:59 | 55.54870 | 48.83306 | 10115 ft | 308 kts | 109° |
| 2026-05-07 16:00 | 55.54150 | 48.86816 | 9705 ft | 299 kts | 109° |
| 2026-05-07 16:00 | 55.53443 | 48.90251 | 9566 ft | 298 kts | 108° |
| 2026-05-07 16:00 | 55.52734 | 48.93689 | 9444 ft | 298 kts | 109° |
| 2026-05-07 16:00 | 55.52025 | 48.97113 | 9256 ft | 297 kts | 109° |
| 2026-05-07 16:01 | 55.51318 | 49.00527 | 8902 ft | 295 kts | 108° |
| 2026-05-07 16:01 | 55.50615 | 49.03925 | 8499 ft | 295 kts | 108° |
| 2026-05-07 16:01 | 55.49912 | 49.07320 | 8121 ft | 294 kts | 108° |
| 2026-05-07 16:01 | 55.49213 | 49.10698 | 7746 ft | 292 kts | 108° |
| 2026-05-07 16:02 | 55.48531 | 49.13972 | 7585 ft | 275 kts | 108° |
| 2026-05-07 16:02 | 55.47876 | 49.17107 | 7197 ft | 265 kts | 108° |
| 2026-05-07 16:02 | 55.47245 | 49.20137 | 6714 ft | 262 kts | 108° |
| 2026-05-07 16:02 | 55.46620 | 49.23150 | 6320 ft | 261 kts | 108° |
| 2026-05-07 16:03 | 55.45998 | 49.26142 | 5961 ft | 260 kts | 108° |
| 2026-05-07 16:03 | 55.45376 | 49.29120 | 5616 ft | 259 kts | 108° |
| 2026-05-07 16:03 | 55.44754 | 49.32081 | 5278 ft | 257 kts | 108° |
| 2026-05-07 16:03 | 55.44133 | 49.35023 | 4939 ft | 255 kts | 108° |
| 2026-05-07 16:04 | 55.43519 | 49.37931 | 4611 ft | 252 kts | 108° |
| 2026-05-07 16:04 | 55.43019 | 49.40850 | 4293 ft | 247 kts | 93° |
| 2026-05-07 16:04 | 55.43211 | 49.43769 | 4050 ft | 236 kts | 68° |
| 2026-05-07 16:04 | 55.44047 | 49.46133 | 4002 ft | 223 kts | 44° |
| 2026-05-07 16:05 | 55.45277 | 49.47799 | 3806 ft | 227 kts | 34° |
| 2026-05-07 16:05 | 55.46587 | 49.49375 | 3382 ft | 226 kts | 34° |
| 2026-05-07 16:05 | 55.47966 | 49.50573 | 3111 ft | 218 kts | 17° |
| 2026-05-07 16:05 | 55.49434 | 49.50893 | 2896 ft | 209 kts | 358° |
| 2026-05-07 16:06 | 55.50826 | 49.50396 | 2772 ft | 203 kts | 340° |
| 2026-05-07 16:06 | 55.52001 | 49.49259 | 2708 ft | 183 kts | 324° |
| 2026-05-07 16:06 | 55.52859 | 49.47762 | 2702 ft | 168 kts | 310° |
| 2026-05-07 16:06 | 55.53508 | 49.46136 | 2550 ft | 157 kts | 305° |
| 2026-05-07 16:07 | 55.54119 | 49.44566 | 2335 ft | 153 kts | 307° |
| 2026-05-07 16:07 | 55.54720 | 49.43032 | 2136 ft | 152 kts | 306° |
| 2026-05-07 16:07 | 55.55321 | 49.41501 | 1976 ft | 151 kts | 306° |
| 2026-05-07 16:07 | 55.55917 | 49.39974 | 1740 ft | 151 kts | 306° |
| 2026-05-07 16:08 | 55.56506 | 49.38456 | 1560 ft | 150 kts | 307° |
| 2026-05-07 16:08 | 55.57096 | 49.36948 | 1343 ft | 148 kts | 306° |
| 2026-05-07 16:08 | 55.57683 | 49.35438 | 1159 ft | 149 kts | 305° |
| 2026-05-07 16:08 | 55.58271 | 49.33939 | 981 ft | 148 kts | 306° |
| 2026-05-07 16:09 | 55.58850 | 49.32446 | 781 ft | 148 kts | 305° |
| 2026-05-07 16:09 | 55.59430 | 49.30950 | 623 ft | 147 kts | 304° |
| 2026-05-07 16:09 | 55.60011 | 49.29470 | 418 ft | 142 kts | 306° |
| 2026-05-07 16:09 | 55.60436 | 49.28370 | 412 ft | 66 kts | 304° |
| 2026-05-07 16:10 | 55.60661 | 49.27785 | 416 ft | 54 kts | 304° |
| 2026-05-07 16:10 | 55.60869 | 49.27253 | 415 ft | 52 kts | 305° |
| 2026-05-07 16:10 | 55.61010 | 49.26888 | 409 ft | 14 kts | 304° |
| 2026-05-07 16:10 | 55.61068 | 49.26770 | 413 ft | 10 kts | 335° |
| 2026-05-07 16:11 | 55.61120 | 49.26806 | 413 ft | 7 kts | 35° |
| 2026-05-07 16:11 | 55.61162 | 49.26858 | 411 ft | 9 kts | 34° |
| 2026-05-07 16:11 | 55.61208 | 49.26917 | 414 ft | 10 kts | 43° |
| 2026-05-07 16:11 | 55.61197 | 49.27050 | 412 ft | 13 kts | 124° |
| 2026-05-07 16:12 | 55.61148 | 49.27184 | 412 ft | 13 kts | 124° |
| 2026-05-07 16:12 | 55.61089 | 49.27333 | 409 ft | 16 kts | 124° |
| 2026-05-07 16:12 | 55.61024 | 49.27504 | 413 ft | 18 kts | 123° |
| 2026-05-07 16:12 | 55.60950 | 49.27692 | 412 ft | 19 kts | 124° |
| 2026-05-07 16:13 | 55.60870 | 49.27898 | 410 ft | 21 kts | 124° |
| 2026-05-07 16:13 | 55.60784 | 49.28120 | 410 ft | 23 kts | 124° |
| 2026-05-07 16:13 | 55.60692 | 49.28358 | 413 ft | 23 kts | 124° |
| 2026-05-07 16:13 | 55.60622 | 49.28539 | 412 ft | 11 kts | 125° |
| 2026-05-07 16:14 | 55.60593 | 49.28660 | 416 ft | 11 kts | 98° |
| 2026-05-07 16:14 | 55.60586 | 49.28806 | 410 ft | 13 kts | 94° |
| 2026-05-07 16:14 | 55.60577 | 49.29010 | 416 ft | 14 kts | 94° |
| 2026-05-07 16:14 | 55.60604 | 49.29165 | 411 ft | 14 kts | 47° |
| 2026-05-07 16:15 | 55.60689 | 49.29274 | 416 ft | 16 kts | 35° |
| 2026-05-07 16:15 | 55.60761 | 49.29363 | 414 ft | 10 kts | 34° |
| 2026-05-07 16:15 | 55.60811 | 49.29429 | 416 ft | 7 kts | 58° |
| 2026-05-07 16:15 | 55.60790 | 49.29537 | 414 ft | 12 kts | 124° |
| 2026-05-07 16:16 | 55.60746 | 49.29652 | 412 ft | 11 kts | 124° |
| 2026-05-07 16:16 | 55.60716 | 49.29730 | 410 ft | 4 kts | 117° |
| 2026-05-07 16:16 | 55.60726 | 49.29780 | 413 ft | 7 kts | 49° |
| 2026-05-07 16:16 | 55.60750 | 49.29811 | 413 ft | 3 kts | 35° |
| 2026-05-07 16:17 | 55.60762 | 49.29825 | 414 ft | 0 kts | 35° |